Time;durP1;ratioP1;P1;durP2;ratioP2;P2;SDS_P1;SDS_P2;PMS_P1;PMS_P2;Temp;Humidity;BMP_temperature;BMP_pressure;BME280_temperature;BME280_humidity;BME280_pressure;Samples;Min_cycle;Max_cycle;Signal;HPM_P1;HPM_P2
2022/10/13 00:00:50;;;;;;;23.77;19.40;;;11.40;99.90;;;;;;4988276;28;21003;-67
2022/10/13 00:03:16;;;;;;;29.73;19.83;;;11.50;99.90;;;;;;4990854;28;20207;-68
2022/10/13 00:05:47;;;;;;;28.13;21.53;;;11.50;99.90;;;;;;4991638;28;20200;-68
2022/10/13 00:08:17;;;;;;;26.77;19.33;;;11.50;99.90;;;;;;4990709;28;20541;-68
2022/10/13 00:10:43;;;;;;;31.27;21.90;;;11.50;99.90;;;;;;4988266;28;20446;-68
2022/10/13 00:13:08;;;;;;;25.87;19.47;;;11.50;99.90;;;;;;4989137;28;20509;-68
2022/10/13 00:15:42;;;;;;;27.60;20.00;;;11.60;99.90;;;;;;4988791;28;20199;-68
2022/10/13 00:18:08;;;;;;;27.03;18.63;;;11.60;99.90;;;;;;4989694;28;20187;-68
2022/10/13 00:20:34;;;;;;;31.80;22.80;;;11.70;99.90;;;;;;4988384;28;20481;-68
2022/10/13 00:23:00;;;;;;;29.00;22.43;;;11.80;99.90;;;;;;4989161;28;20470;-68
2022/10/13 00:25:26;;;;;;;32.20;21.17;;;11.80;99.90;;;;;;4990623;28;20539;-68
2022/10/13 00:27:51;;;;;;;29.53;22.40;;;11.90;99.90;;;;;;4991150;28;20552;-68
2022/10/13 00:30:17;;;;;;;33.50;23.60;;;11.90;99.90;;;;;;4985654;28;20202;-68
2022/10/13 00:32:42;;;;;;;34.43;23.87;;;11.90;99.90;;;;;;4991708;28;20211;-68
2022/10/13 00:35:09;;;;;;;32.30;21.47;;;11.90;99.90;;;;;;4989689;28;20184;-68
2022/10/13 00:37:34;;;;;;;30.10;23.50;;;11.90;99.90;;;;;;4990569;28;20211;-68
2022/10/13 00:40:00;;;;;;;36.33;24.10;;;11.90;99.90;;;;;;4988138;28;20473;-68
2022/10/13 00:42:26;;;;;;;33.40;23.40;;;11.90;99.90;;;;;;4990178;28;20335;-68
2022/10/13 00:44:57;;;;;;;32.13;22.50;;;11.90;99.90;;;;;;4989763;28;20283;-68
2022/10/13 00:47:24;;;;;;;33.80;23.27;;;11.90;99.90;;;;;;4993233;28;20211;-68
2022/10/13 00:49:51;;;;;;;31.20;21.87;;;11.90;99.90;;;;;;4993214;28;20450;-68
2022/10/13 00:52:19;;;;;;;26.70;20.73;;;11.90;99.90;;;;;;4993121;28;20489;-68
2022/10/13 00:54:45;;;;;;;32.37;22.87;;;11.90;99.90;;;;;;4992772;28;20454;-68
2022/10/13 00:57:12;;;;;;;38.33;24.77;;;11.80;99.90;;;;;;4993190;28;20454;-68
2022/10/13 00:59:38;;;;;;;35.03;20.93;;;11.80;99.90;;;;;;4996407;28;20446;-68
2022/10/13 01:02:04;;;;;;;33.80;23.07;;;11.70;99.90;;;;;;4999656;28;20839;-68
2022/10/13 01:04:36;;;;;;;32.60;21.60;;;11.60;99.90;;;;;;5003846;28;20442;-68
2022/10/13 01:07:02;;;;;;;40.67;24.37;;;11.70;99.90;;;;;;4993583;28;20443;-68
2022/10/13 01:09:34;;;;;;;30.57;22.60;;;11.70;99.90;;;;;;4997567;28;20525;-68
2022/10/13 01:12:24;;;;;;;29.20;21.70;;;11.60;99.90;;;;;;4990818;28;20442;-67
2022/10/13 01:14:50;;;;;;;31.40;21.70;;;11.60;99.90;;;;;;4991518;28;20546;-68
2022/10/13 01:17:27;;;;;;;33.27;22.03;;;11.50;99.90;;;;;;4993401;28;20906;-68
2022/10/13 01:19:52;;;;;;;29.60;21.03;;;11.40;99.90;;;;;;4992748;28;20190;-68
2022/10/13 01:22:47;;;;;;;33.60;21.60;;;11.40;99.90;;;;;;4992949;28;20478;-68
2022/10/13 01:25:30;;;;;;;32.03;22.67;;;11.30;99.90;;;;;;4990752;28;20649;-68
2022/10/13 01:28:27;;;;;;;36.17;22.83;;;11.20;99.90;;;;;;4987206;28;20442;-68
2022/10/13 01:31:18;;;;;;;28.03;19.33;;;11.20;99.90;;;;;;4994418;28;20451;-68
2022/10/13 01:33:55;;;;;;;31.67;21.07;;;11.20;99.90;;;;;;4989657;28;20541;-68
2022/10/13 01:36:24;;;;;;;32.60;21.47;;;11.10;99.90;;;;;;4990542;28;20509;-68
2022/10/13 01:38:55;;;;;;;36.63;22.73;;;11.00;99.90;;;;;;4992601;28;20442;-68
2022/10/13 01:41:34;;;;;;;35.40;21.20;;;11.00;99.90;;;;;;4990043;28;20462;-68
2022/10/13 01:44:24;;;;;;;34.53;21.63;;;11.10;99.90;;;;;;4993717;28;20556;-68
2022/10/13 01:46:51;;;;;;;39.83;24.73;;;11.20;99.90;;;;;;4990476;28;20473;-68
2022/10/13 01:49:20;;;;;;;37.33;23.97;;;11.30;99.90;;;;;;5002103;28;20877;-67
2022/10/13 01:51:47;;;;;;;40.23;26.07;;;11.40;99.90;;;;;;4992220;28;20447;-68
2022/10/13 01:54:13;;;;;;;31.90;22.67;;;11.40;99.90;;;;;;4991917;28;20479;-67
2022/10/13 01:56:38;;;;;;;34.90;23.70;;;11.50;99.90;;;;;;4992633;28;20481;-68
2022/10/13 01:59:11;;;;;;;33.37;23.40;;;11.50;99.90;;;;;;4992374;28;20176;-68
2022/10/13 02:01:50;;;;;;;40.00;26.23;;;11.60;99.90;;;;;;4994774;28;20195;-67
2022/10/13 02:04:15;;;;;;;32.33;22.20;;;11.60;99.90;;;;;;4990422;28;20474;-68
2022/10/13 02:06:52;;;;;;;31.27;21.63;;;11.60;99.90;;;;;;4992336;28;20458;-68
2022/10/13 02:09:42;;;;;;;32.90;22.30;;;11.60;99.90;;;;;;4992119;28;20175;-68
2022/10/13 02:12:15;;;;;;;27.50;19.73;;;11.50;99.90;;;;;;4990198;28;21038;-68
2022/10/13 02:14:42;;;;;;;35.83;23.00;;;11.50;99.90;;;;;;4992257;28;20979;-68
2022/10/13 02:17:09;;;;;;;31.47;20.30;;;11.60;99.90;;;;;;4993084;28;20442;-68
2022/10/13 02:19:37;;;;;;;32.73;21.50;;;11.60;99.90;;;;;;4991111;28;20454;-68
2022/10/13 02:22:04;;;;;;;30.40;21.70;;;11.60;99.90;;;;;;4995459;28;20877;-68
2022/10/13 02:24:31;;;;;;;35.77;21.30;;;12.00;99.90;;;;;;4999981;28;20442;-68
2022/10/13 02:26:56;;;;;;;37.87;24.30;;;11.70;99.90;;;;;;4991479;28;20466;-68
2022/10/13 02:29:22;;;;;;;32.80;21.73;;;11.70;99.90;;;;;;4991569;28;20466;-67
2022/10/13 02:31:48;;;;;;;29.47;20.63;;;11.70;99.90;;;;;;4990819;28;20234;-68
2022/10/13 02:34:14;;;;;;;32.03;22.00;;;11.80;99.90;;;;;;4990773;28;20187;-68
2022/10/13 02:36:40;;;;;;;30.90;21.87;;;11.80;99.90;;;;;;4991610;28;20183;-68
2022/10/13 02:39:07;;;;;;;37.97;22.37;;;11.80;99.90;;;;;;4990329;28;20442;-68
2022/10/13 02:41:33;;;;;;;33.80;22.23;;;11.80;99.90;;;;;;4994555;28;20212;-68
2022/10/13 02:43:58;;;;;;;31.20;22.50;;;11.80;99.90;;;;;;4989950;28;20477;-68
2022/10/13 02:46:24;;;;;;;35.17;23.90;;;11.90;99.90;;;;;;4989510;28;20183;-68
2022/10/13 02:48:50;;;;;;;31.03;22.77;;;11.80;99.90;;;;;;4991031;28;20207;-68
2022/10/13 02:51:15;;;;;;;38.13;24.27;;;11.90;99.90;;;;;;4991624;28;20733;-68
2022/10/13 02:53:41;;;;;;;35.43;23.20;;;11.90;99.90;;;;;;4990872;28;20291;-68
2022/10/13 02:56:06;;;;;;;39.53;23.57;;;11.90;99.90;;;;;;4990223;28;20203;-68
2022/10/13 02:58:33;;;;;;;33.43;25.07;;;11.90;99.90;;;;;;4991555;28;20214;-68
2022/10/13 03:01:13;;;;;;;36.77;23.90;;;11.90;99.90;;;;;;4991456;28;20198;-68
2022/10/13 03:03:39;;;;;;;46.33;24.77;;;11.90;99.90;;;;;;4991849;28;20845;-67
2022/10/13 03:06:06;;;;;;;33.03;23.67;;;11.90;99.90;;;;;;4993490;28;20438;-68
2022/10/13 03:08:33;;;;;;;37.97;24.27;;;11.90;99.90;;;;;;4994149;28;20438;-68
2022/10/13 03:10:59;;;;;;;35.07;22.50;;;12.00;99.90;;;;;;4997279;28;20492;-67
2022/10/13 03:13:24;;;;;;;31.70;22.70;;;12.00;99.90;;;;;;4993093;28;20470;-68
2022/10/13 03:15:50;;;;;;;37.80;24.33;;;11.90;99.90;;;;;;4995726;28;20184;-68
2022/10/13 03:18:15;;;;;;;36.47;25.10;;;11.90;99.90;;;;;;4989762;28;20266;-67
2022/10/13 03:20:41;;;;;;;32.07;22.80;;;11.90;99.90;;;;;;5005343;28;20206;-68
2022/10/13 03:23:07;;;;;;;31.30;22.50;;;11.90;99.90;;;;;;4991170;28;20194;-68
2022/10/13 03:25:33;;;;;;;35.03;22.30;;;11.90;99.90;;;;;;4994622;28;20799;-68
2022/10/13 03:27:59;;;;;;;40.27;26.50;;;11.90;99.90;;;;;;4989188;28;20191;-67
2022/10/13 03:30:25;;;;;;;36.83;22.93;;;11.90;99.90;;;;;;4988875;28;20438;-68
2022/10/13 03:32:50;;;;;;;35.37;22.00;;;11.90;99.90;;;;;;4991199;28;20207;-68
2022/10/13 03:35:16;;;;;;;35.60;22.47;;;11.90;99.90;;;;;;4990815;28;20829;-68
2022/10/13 03:37:42;;;;;;;35.87;23.13;;;11.90;99.90;;;;;;4992252;28;20255;-68
2022/10/13 03:40:08;;;;;;;35.60;22.97;;;11.90;99.90;;;;;;4993505;28;20176;-68
2022/10/13 03:42:38;;;;;;;34.17;24.00;;;11.90;99.90;;;;;;4989360;28;20195;-68
2022/10/13 03:45:04;;;;;;;38.27;23.47;;;12.00;99.90;;;;;;4990090;28;20441;-68
2022/10/13 03:47:30;;;;;;;31.30;21.70;;;12.00;99.90;;;;;;4990886;28;20868;-68
2022/10/13 03:49:56;;;;;;;31.73;20.70;;;12.10;99.90;;;;;;4988401;28;20537;-68
2022/10/13 03:52:21;;;;;;;32.27;22.13;;;12.10;99.90;;;;;;4991586;28;20547;-68
2022/10/13 03:54:47;;;;;;;28.43;20.47;;;12.10;99.90;;;;;;4990471;28;20179;-68
2022/10/13 03:57:13;;;;;;;28.13;20.37;;;12.10;99.90;;;;;;4989992;28;20478;-68
2022/10/13 03:59:41;;;;;;;25.67;20.50;;;12.10;99.90;;;;;;4989390;28;20187;-68
2022/10/13 04:02:07;;;;;;;28.20;21.33;;;12.00;99.90;;;;;;4989753;28;20758;-68
2022/10/13 04:04:34;;;;;;;25.70;19.73;;;12.20;99.90;;;;;;4988377;28;20449;-68
2022/10/13 04:07:00;;;;;;;27.13;20.60;;;12.20;99.90;;;;;;4989972;28;20441;-68
2022/10/13 04:09:25;;;;;;;31.10;20.33;;;12.20;99.90;;;;;;4990012;28;20980;-68
2022/10/13 04:11:51;;;;;;;32.67;20.77;;;12.20;99.90;;;;;;4988251;28;20526;-67
2022/10/13 04:14:17;;;;;;;26.90;19.50;;;12.20;99.90;;;;;;4990961;28;20245;-68
2022/10/13 04:16:43;;;;;;;30.90;21.70;;;12.30;99.90;;;;;;4990500;28;20172;-68
2022/10/13 04:19:11;;;;;;;28.07;19.70;;;12.30;99.90;;;;;;4989755;28;20442;-68
2022/10/13 04:21:37;;;;;;;32.13;21.77;;;12.30;99.90;;;;;;4988205;28;20203;-67
2022/10/13 04:24:04;;;;;;;25.67;19.33;;;12.40;99.90;;;;;;4992014;28;20504;-68
2022/10/13 04:26:32;;;;;;;34.37;20.20;;;12.40;99.90;;;;;;4993415;28;20258;-68
2022/10/13 04:28:59;;;;;;;30.93;22.40;;;12.40;99.90;;;;;;4993839;28;20434;-68
2022/10/13 04:31:26;;;;;;;28.80;20.07;;;12.50;99.90;;;;;;4992019;28;20441;-68
2022/10/13 04:33:52;;;;;;;29.57;20.60;;;12.50;99.90;;;;;;4993538;28;20811;-68
2022/10/13 04:36:19;;;;;;;25.63;19.10;;;12.50;99.90;;;;;;4991562;28;20441;-68
2022/10/13 04:38:45;;;;;;;20.80;18.60;;;12.50;99.90;;;;;;4993763;28;20245;-68
2022/10/13 04:41:12;;;;;;;27.10;20.17;;;12.40;99.90;;;;;;4992638;28;20454;-68
2022/10/13 04:43:38;;;;;;;25.30;20.17;;;12.40;99.90;;;;;;4994731;28;20481;-68
2022/10/13 04:46:06;;;;;;;25.33;18.60;;;12.40;99.90;;;;;;4992626;28;20478;-68
2022/10/13 04:48:32;;;;;;;24.93;18.80;;;12.40;99.90;;;;;;4993641;28;20186;-68
2022/10/13 04:51:09;;;;;;;26.00;18.57;;;12.30;99.90;;;;;;4993766;28;20948;-68
2022/10/13 04:53:35;;;;;;;24.87;18.30;;;12.30;99.90;;;;;;4993061;28;20297;-68
2022/10/13 04:56:03;;;;;;;22.77;18.00;;;12.30;99.90;;;;;;4992568;28;21031;-68
2022/10/13 04:58:29;;;;;;;33.63;19.10;;;12.20;99.90;;;;;;4990625;28;20529;-68
2022/10/13 05:00:55;;;;;;;25.10;18.93;;;12.20;99.90;;;;;;4992934;28;21028;-68
2022/10/13 05:03:21;;;;;;;30.03;18.53;;;12.20;99.90;;;;;;4989375;28;21022;-68
2022/10/13 05:05:47;;;;;;;22.80;18.30;;;12.10;99.90;;;;;;4991989;28;20442;-68
2022/10/13 05:08:12;;;;;;;32.90;19.73;;;12.00;99.90;;;;;;4993217;28;20431;-67
2022/10/13 05:10:38;;;;;;;24.37;17.90;;;12.00;99.90;;;;;;4993720;28;20192;-68
2022/10/13 05:13:04;;;;;;;26.97;18.73;;;11.90;99.90;;;;;;4993537;28;20277;-68
2022/10/13 05:15:29;;;;;;;27.13;19.83;;;11.90;99.90;;;;;;4991447;28;20187;-68
2022/10/13 05:17:55;;;;;;;25.53;20.17;;;11.80;99.90;;;;;;4993190;28;20616;-68
2022/10/13 05:20:21;;;;;;;26.43;19.40;;;11.80;99.90;;;;;;4992000;28;20183;-68
2022/10/13 05:22:46;;;;;;;27.50;18.40;;;11.80;99.90;;;;;;4997918;28;20226;-68
2022/10/13 05:25:12;;;;;;;27.30;18.40;;;11.80;99.90;;;;;;4999935;28;20175;-68
2022/10/13 05:27:37;;;;;;;35.90;19.63;;;11.70;99.90;;;;;;5000994;28;20176;-68
2022/10/13 05:30:03;;;;;;;33.20;18.83;;;11.70;99.90;;;;;;4999313;28;20234;-68
2022/10/13 05:32:28;;;;;;;25.87;19.63;;;11.80;99.90;;;;;;5001906;28;20205;-68
2022/10/13 05:34:54;;;;;;;25.97;18.97;;;11.80;99.90;;;;;;4999031;28;20197;-68
2022/10/13 05:37:21;;;;;;;23.57;19.07;;;11.90;99.90;;;;;;5001573;28;20712;-68
2022/10/13 05:39:47;;;;;;;25.37;18.40;;;11.80;99.90;;;;;;5001668;28;20214;-68
2022/10/13 05:42:13;;;;;;;26.50;21.00;;;11.80;99.90;;;;;;5008993;28;20457;-68
2022/10/13 05:44:39;;;;;;;27.77;18.87;;;11.90;99.90;;;;;;5010710;28;20588;-68
2022/10/13 05:47:04;;;;;;;31.97;21.33;;;11.90;99.90;;;;;;5000024;28;20956;-68
2022/10/13 05:49:30;;;;;;;33.47;21.07;;;11.80;99.90;;;;;;5003368;28;20254;-68
2022/10/13 05:52:00;;;;;;;31.63;20.23;;;11.80;99.90;;;;;;5003768;28;20170;-68
2022/10/13 05:54:40;;;;;;;27.50;18.90;;;11.90;99.90;;;;;;4999020;28;20190;-68
2022/10/13 05:57:11;;;;;;;38.60;22.13;;;11.90;99.90;;;;;;5000858;28;20441;-68
2022/10/13 05:59:43;;;;;;;24.53;19.00;;;12.00;99.90;;;;;;5007686;28;20445;-68
2022/10/13 06:02:12;;;;;;;28.77;21.60;;;12.00;99.90;;;;;;4999306;28;20472;-68
2022/10/13 06:04:41;;;;;;;25.20;17.60;;;12.10;99.90;;;;;;4996354;28;21115;-68
2022/10/13 06:07:07;;;;;;;32.50;20.13;;;12.00;99.90;;;;;;4999765;28;20939;-68
2022/10/13 06:09:36;;;;;;;27.00;19.60;;;12.00;99.90;;;;;;5000159;28;20508;-68
2022/10/13 06:12:05;;;;;;;32.33;19.77;;;12.00;99.90;;;;;;4995554;28;20450;-68
2022/10/13 06:14:31;;;;;;;34.97;23.10;;;12.00;99.90;;;;;;4991806;28;20831;-68
2022/10/13 06:16:57;;;;;;;29.33;19.60;;;12.00;99.90;;;;;;4989165;28;20438;-68
2022/10/13 06:19:22;;;;;;;23.93;20.10;;;12.00;99.90;;;;;;4990948;28;20478;-68
2022/10/13 06:21:48;;;;;;;31.93;21.97;;;12.00;99.90;;;;;;4991984;28;20286;-68
2022/10/13 06:24:13;;;;;;;27.00;19.80;;;12.00;99.90;;;;;;5000507;28;20190;-68
2022/10/13 06:26:39;;;;;;;28.80;20.47;;;12.00;99.90;;;;;;4988218;28;20191;-68
2022/10/13 06:29:05;;;;;;;29.73;19.20;;;12.10;99.90;;;;;;4990847;28;20183;-69
2022/10/13 06:31:30;;;;;;;28.77;19.27;;;12.20;99.90;;;;;;4990872;28;20265;-68
2022/10/13 06:33:57;;;;;;;30.43;18.47;;;12.20;99.90;;;;;;4997947;28;20310;-68
2022/10/13 06:36:23;;;;;;;25.23;18.00;;;12.30;99.90;;;;;;4991875;28;20187;-68
2022/10/13 06:38:48;;;;;;;28.30;20.20;;;12.40;99.90;;;;;;4990346;28;20494;-68
2022/10/13 06:41:14;;;;;;;25.50;18.40;;;12.50;99.90;;;;;;4991749;28;20207;-68
2022/10/13 06:43:40;;;;;;;27.37;19.30;;;12.50;99.90;;;;;;4967470;28;20207;-68
2022/10/13 06:46:06;;;;;;;25.30;18.13;;;12.60;99.90;;;;;;4969972;28;20657;-68
2022/10/13 06:48:32;;;;;;;24.23;19.57;;;12.70;99.90;;;;;;4985962;28;20187;-68
2022/10/13 06:51:08;;;;;;;22.60;17.40;;;12.90;99.90;;;;;;4988997;28;20438;-67
2022/10/13 06:53:34;;;;;;;25.40;18.73;;;12.90;99.90;;;;;;4987457;28;20211;-69
2022/10/13 06:56:01;;;;;;;21.43;16.80;;;13.00;99.90;;;;;;4990369;28;20446;-68
2022/10/13 06:58:27;;;;;;;25.47;16.67;;;13.10;99.90;;;;;;4989786;28;20194;-69
2022/10/13 07:00:53;;;;;;;25.70;17.00;;;13.30;99.90;;;;;;4990397;28;20458;-68
2022/10/13 07:03:19;;;;;;;25.10;17.07;;;13.30;99.90;;;;;;4987618;28;20196;-70
2022/10/13 07:05:45;;;;;;;28.30;18.77;;;13.30;99.90;;;;;;4992301;28;20230;-67
2022/10/13 07:08:11;;;;;;;24.23;16.40;;;13.20;99.90;;;;;;4989187;28;20455;-68
2022/10/13 07:10:37;;;;;;;20.67;17.77;;;13.20;99.90;;;;;;4991127;28;20671;-69
2022/10/13 07:13:03;;;;;;;25.43;17.20;;;13.30;99.90;;;;;;4987908;28;20676;-67
2022/10/13 07:15:29;;;;;;;26.50;17.73;;;13.40;99.90;;;;;;4992386;28;20477;-68
2022/10/13 07:17:55;;;;;;;20.60;16.90;;;13.60;99.90;;;;;;4978474;28;20199;-68
2022/10/13 07:20:21;;;;;;;17.50;14.97;;;13.70;99.90;;;;;;4990135;28;20274;-69
2022/10/13 07:22:47;;;;;;;25.90;17.40;;;13.80;99.90;;;;;;4988171;28;20200;-69
2022/10/13 07:25:13;;;;;;;18.77;14.33;;;13.90;99.90;;;;;;4996220;28;20446;-69
2022/10/13 07:27:39;;;;;;;19.10;13.90;;;13.90;99.90;;;;;;4993604;28;20171;-70
2022/10/13 07:30:06;;;;;;;19.00;15.20;;;14.10;99.90;;;;;;4991067;28;20502;-69
2022/10/13 07:32:32;;;;;;;21.37;15.87;;;13.80;99.90;;;;;;4986201;28;20640;-69
2022/10/13 07:34:58;;;;;;;18.03;16.13;;;13.80;99.90;;;;;;4987755;28;20522;-69
2022/10/13 07:37:24;;;;;;;16.77;14.73;;;13.70;99.90;;;;;;4992336;28;20194;-68
2022/10/13 07:39:50;;;;;;;18.77;16.37;;;13.50;99.90;;;;;;4990462;28;20175;-68
2022/10/13 07:42:16;;;;;;;21.97;17.00;;;13.50;99.90;;;;;;4986674;28;20462;-69
2022/10/13 07:44:42;;;;;;;20.87;15.90;;;13.50;99.90;;;;;;4987122;28;20944;-68
2022/10/13 07:47:09;;;;;;;21.50;16.07;;;13.50;99.90;;;;;;4988362;28;20434;-68
2022/10/13 07:49:34;;;;;;;18.67;14.70;;;13.60;99.90;;;;;;4993411;28;20799;-68
2022/10/13 07:52:00;;;;;;;21.70;15.50;;;13.60;99.90;;;;;;4990735;28;20449;-68
2022/10/13 07:54:26;;;;;;;21.90;15.57;;;13.40;99.90;;;;;;4987217;28;20188;-69
2022/10/13 07:56:52;;;;;;;21.63;16.57;;;13.80;99.90;;;;;;4990235;28;20180;-69
2022/10/13 07:59:18;;;;;;;20.13;13.47;;;13.90;99.90;;;;;;4994637;28;20493;-68
2022/10/13 08:01:43;;;;;;;18.60;12.77;;;14.00;99.90;;;;;;4994057;28;20458;-68
2022/10/13 08:04:09;;;;;;;19.67;15.23;;;14.10;99.90;;;;;;4993994;28;20286;-69
2022/10/13 08:06:34;;;;;;;20.43;14.40;;;14.20;99.90;;;;;;4994207;28;20198;-68
2022/10/13 08:09:00;;;;;;;24.97;13.30;;;14.30;99.90;;;;;;4992711;28;20210;-68
2022/10/13 08:11:26;;;;;;;22.50;11.90;;;14.60;99.90;;;;;;5006121;28;20669;-68
2022/10/13 08:13:52;;;;;;;14.80;11.80;;;14.80;99.90;;;;;;4991636;28;20265;-69
2022/10/13 08:16:18;;;;;;;22.10;13.23;;;15.00;99.90;;;;;;4991992;28;20598;-68
2022/10/13 08:18:45;;;;;;;17.47;12.90;;;14.80;99.90;;;;;;4991606;28;20439;-68
2022/10/13 08:21:16;;;;;;;14.97;13.37;;;14.80;99.90;;;;;;4998338;28;20473;-68
2022/10/13 08:23:42;;;;;;;17.07;11.93;;;14.50;99.90;;;;;;4993187;28;20450;-68
2022/10/13 08:26:32;;;;;;;17.87;11.77;;;14.60;99.90;;;;;;4992792;28;20435;-68
2022/10/13 08:28:57;;;;;;;20.53;12.60;;;14.60;99.90;;;;;;4988570;28;20470;-68
2022/10/13 08:31:23;;;;;;;14.80;12.00;;;14.90;99.90;;;;;;5002177;28;20848;-69
2022/10/13 08:33:50;;;;;;;17.83;12.20;;;14.90;99.90;;;;;;4990354;28;20195;-68
2022/10/13 08:36:16;;;;;;;18.40;11.53;;;15.00;99.90;;;;;;4991714;28;20188;-68
2022/10/13 08:38:42;;;;;;;15.53;12.63;;;15.30;99.90;;;;;;4993898;28;20493;-69
2022/10/13 08:41:15;;;;;;;16.07;12.03;;;15.50;99.90;;;;;;4990066;28;20879;-68
2022/10/13 08:43:46;;;;;;;20.23;13.03;;;15.80;99.90;;;;;;4988911;28;20204;-68
2022/10/13 08:46:15;;;;;;;17.40;11.40;;;16.10;99.90;;;;;;4994470;28;20446;-68
2022/10/13 08:48:41;;;;;;;21.37;12.37;;;16.10;99.90;;;;;;4999051;28;20445;-72
2022/10/13 08:51:07;;;;;;;13.50;11.37;;;15.80;99.90;;;;;;4998764;28;20443;-69
2022/10/13 08:53:35;;;;;;;16.50;10.50;;;15.70;99.90;;;;;;4984025;28;21018;-68
2022/10/13 08:56:22;;;;;;;13.93;10.90;;;15.70;99.90;;;;;;4993826;28;20183;-69
2022/10/13 08:58:49;;;;;;;20.40;13.10;;;15.60;99.90;;;;;;4993041;28;20438;-68
2022/10/13 09:01:24;;;;;;;15.83;12.00;;;15.60;99.90;;;;;;4988220;28;20466;-68
2022/10/13 09:04:10;;;;;;;14.77;10.90;;;15.30;99.90;;;;;;4989308;28;20458;-68
2022/10/13 09:06:40;;;;;;;14.50;10.53;;;15.40;99.90;;;;;;4989434;28;20439;-68
2022/10/13 09:09:10;;;;;;;13.87;10.40;;;15.30;99.90;;;;;;4993531;28;20462;-68
2022/10/13 09:11:38;;;;;;;18.60;12.47;;;15.40;99.90;;;;;;4992476;28;20441;-67
2022/10/13 09:14:07;;;;;;;19.60;12.77;;;15.50;99.90;;;;;;4989315;28;20556;-68
2022/10/13 09:16:34;;;;;;;22.60;11.80;;;15.80;99.90;;;;;;4992400;28;20558;-68
2022/10/13 09:19:12;;;;;;;14.33;10.73;;;15.80;99.90;;;;;;4985649;28;21194;-68
2022/10/13 09:21:38;;;;;;;13.53;10.70;;;15.80;99.90;;;;;;4996687;28;20517;-68
2022/10/13 09:24:15;;;;;;;18.43;11.20;;;15.80;99.90;;;;;;4990144;28;20450;-69
2022/10/13 09:26:42;;;;;;;13.73;9.70;;;15.80;99.90;;;;;;4991410;28;20900;-68
2022/10/13 09:29:26;;;;;;;11.87;9.40;;;15.60;99.90;;;;;;4988441;28;20475;-68
2022/10/13 09:32:13;;;;;;;14.47;9.50;;;15.60;99.90;;;;;;4992079;28;20504;-68
2022/10/13 09:34:39;;;;;;;12.43;10.60;;;15.60;99.90;;;;;;4989978;28;20810;-68
2022/10/13 09:37:14;;;;;;;11.40;9.30;;;15.70;99.90;;;;;;4991174;28;20442;-68
2022/10/13 09:39:40;;;;;;;13.60;9.63;;;15.90;99.90;;;;;;4992529;28;20303;-68
2022/10/13 09:42:30;;;;;;;16.80;9.90;;;16.00;99.90;;;;;;4990808;28;20479;-68
2022/10/13 09:44:59;;;;;;;12.13;7.77;;;16.00;99.90;;;;;;4990186;28;20213;-68
2022/10/13 09:47:27;;;;;;;11.00;9.57;;;16.00;99.90;;;;;;4994559;28;20442;-68
2022/10/13 09:50:18;;;;;;;13.10;9.10;;;16.10;99.90;;;;;;4986865;28;20477;-68
2022/10/13 09:52:45;;;;;;;10.00;8.10;;;16.00;99.90;;;;;;4985680;28;20469;-68
2022/10/13 09:55:33;;;;;;;10.43;9.27;;;15.90;99.90;;;;;;4991227;28;20447;-68
2022/10/13 09:58:08;;;;;;;13.03;8.70;;;16.00;99.90;;;;;;4989265;28;20438;-68
2022/10/13 10:00:35;;;;;;;11.73;9.40;;;16.20;99.90;;;;;;4990758;28;20969;-70
2022/10/13 10:03:16;;;;;;;10.53;9.33;;;16.30;99.90;;;;;;4986321;28;21003;-68
2022/10/13 10:06:13;;;;;;;10.80;8.13;;;16.40;99.90;;;;;;4994927;28;20521;-68
2022/10/13 10:09:22;;;;;;;10.77;8.63;;;16.40;99.90;;;;;;4998715;28;20461;-68
2022/10/13 10:11:52;;;;;;;11.90;8.27;;;16.50;99.90;;;;;;5005542;28;20469;-68
2022/10/13 10:14:20;;;;;;;10.73;8.07;;;16.40;99.90;;;;;;4985723;28;20855;-68
2022/10/13 10:17:00;;;;;;;10.30;8.63;;;16.50;99.90;;;;;;4997162;28;20446;-67
2022/10/13 10:19:49;;;;;;;13.00;8.00;;;16.60;99.90;;;;;;4990186;28;20776;-67
2022/10/13 10:22:33;;;;;;;11.57;9.90;;;16.60;99.90;;;;;;4994552;28;20466;-68
2022/10/13 10:25:21;;;;;;;10.80;8.67;;;16.50;99.90;;;;;;4991240;28;20501;-68
2022/10/13 10:28:01;;;;;;;12.57;9.00;;;16.30;99.90;;;;;;4997150;28;20437;-68
2022/10/13 10:30:30;;;;;;;10.77;9.60;;;16.10;99.90;;;;;;4999998;28;20565;-68
2022/10/13 10:33:07;;;;;;;11.20;8.90;;;16.00;99.90;;;;;;4987366;28;21058;-68
2022/10/13 10:35:48;;;;;;;11.43;9.43;;;16.00;99.90;;;;;;5000951;28;20448;-68
2022/10/13 10:38:28;;;;;;;11.90;9.13;;;15.90;99.90;;;;;;4985517;28;20843;-69
2022/10/13 10:41:44;;;;;;;12.77;10.10;;;15.80;99.90;;;;;;4998848;28;20461;-68
2022/10/13 10:44:14;;;;;;;10.67;8.50;;;15.70;99.90;;;;;;4972036;28;20455;-67
2022/10/13 10:46:48;;;;;;;12.67;11.17;;;15.70;99.90;;;;;;4985770;28;20454;-67
2022/10/13 10:49:32;;;;;;;9.50;8.50;;;15.70;99.90;;;;;;4990255;28;20435;-67
2022/10/13 10:52:07;;;;;;;13.20;10.07;;;15.70;99.90;;;;;;4988008;28;20441;-67
2022/10/13 10:54:55;;;;;;;10.43;8.40;;;15.90;99.90;;;;;;4990054;28;20476;-67
2022/10/13 10:57:45;;;;;;;12.20;9.90;;;16.00;99.90;;;;;;4988385;28;20844;-67
2022/10/13 11:00:10;;;;;;;9.80;8.80;;;16.20;99.90;;;;;;4986043;28;20462;-67
2022/10/13 11:03:07;;;;;;;12.20;9.03;;;16.30;99.90;;;;;;4991471;28;21253;-68
2022/10/13 11:05:59;;;;;;;11.33;9.83;;;16.60;99.90;;;;;;4988631;28;20592;-68
2022/10/13 11:08:38;;;;;;;10.57;8.90;;;16.80;99.90;;;;;;4988820;28;20430;-67
2022/10/13 11:11:19;;;;;;;10.93;9.70;;;16.90;99.90;;;;;;4989354;28;20434;-68
2022/10/13 11:14:03;;;;;;;13.63;10.40;;;16.80;99.90;;;;;;4987113;28;20561;-68
2022/10/13 11:16:34;;;;;;;11.77;8.20;;;16.90;99.90;;;;;;5005012;28;20468;-68
2022/10/13 11:19:04;;;;;;;9.87;8.90;;;17.20;99.90;;;;;;4997402;28;20439;-68
2022/10/13 11:21:51;;;;;;;11.30;8.33;;;17.40;99.90;;;;;;4991981;28;20466;-68
2022/10/13 11:24:36;;;;;;;9.50;7.90;;;17.50;99.90;;;;;;4988416;28;20473;-68
2022/10/13 11:27:08;;;;;;;12.13;10.73;;;17.30;99.90;;;;;;4990348;28;20441;-67
2022/10/13 11:29:45;;;;;;;11.70;9.43;;;17.10;99.90;;;;;;4989441;28;20431;-68
2022/10/13 11:35:08;;;;;;;10.63;7.87;;;17.20;99.90;;;;;;4990567;28;20442;-68
2022/10/13 11:38:11;;;;;;;10.73;8.10;;;17.30;99.90;;;;;;4989888;28;20449;-68
2022/10/13 11:41:07;;;;;;;8.20;7.40;;;17.50;99.90;;;;;;4985038;28;20839;-68
2022/10/13 11:43:54;;;;;;;10.27;7.23;;;17.70;99.90;;;;;;4986450;28;20458;-68
2022/10/13 11:46:37;;;;;;;8.67;7.60;;;17.80;99.90;;;;;;4986351;28;20529;-68
2022/10/13 11:49:36;;;;;;;9.47;7.10;;;17.80;99.90;;;;;;4985706;28;20775;-68
2022/10/13 11:52:29;;;;;;;11.07;8.67;;;18.00;99.90;;;;;;4982835;28;20438;-68
2022/10/13 11:55:01;;;;;;;7.53;6.83;;;18.30;99.90;;;;;;4987477;28;20542;-68
2022/10/13 11:57:30;;;;;;;8.77;6.93;;;18.40;99.90;;;;;;4987790;28;21078;-68
2022/10/13 11:59:56;;;;;;;9.83;7.77;;;18.30;99.90;;;;;;4985083;28;21415;-68
2022/10/13 12:02:26;;;;;;;8.33;7.50;;;18.20;99.90;;;;;;4988069;28;20553;-68
2022/10/13 12:05:06;;;;;;;8.63;7.13;;;18.20;99.90;;;;;;4989091;28;20201;-68
2022/10/13 12:07:35;;;;;;;8.50;6.47;;;18.00;99.90;;;;;;4992157;28;20437;-67
2022/10/13 12:10:05;;;;;;;9.20;8.30;;;17.90;99.90;;;;;;4989207;28;20435;-67
2022/10/13 12:12:31;;;;;;;9.40;7.13;;;18.00;99.90;;;;;;4995459;28;20501;-67
2022/10/13 12:14:57;;;;;;;9.30;7.30;;;18.20;99.90;;;;;;4986977;28;20442;-67
2022/10/13 12:17:25;;;;;;;9.40;7.77;;;18.40;99.90;;;;;;4990301;28;20282;-67
2022/10/13 12:19:52;;;;;;;10.97;7.50;;;18.50;99.90;;;;;;4989504;28;20195;-67
2022/10/13 12:22:18;;;;;;;7.20;6.50;;;18.60;99.90;;;;;;4988577;28;20466;-67
2022/10/13 12:24:59;;;;;;;8.50;7.73;;;19.00;99.90;;;;;;4984817;28;20442;-67
2022/10/13 12:27:26;;;;;;;12.63;7.90;;;19.60;99.90;;;;;;4989772;28;20180;-67
2022/10/13 12:29:53;;;;;;;12.53;7.00;;;20.30;99.90;;;;;;4986673;28;20493;-67
2022/10/13 12:32:27;;;;;;;14.17;7.53;;;20.40;99.90;;;;;;4987880;28;20489;-67
2022/10/13 12:34:52;;;;;;;6.70;5.80;;;19.70;99.90;;;;;;4982169;28;20425;-67
2022/10/13 12:37:28;;;;;;;8.00;7.30;;;19.30;99.90;;;;;;4985500;28;21011;-67
2022/10/13 12:39:58;;;;;;;11.03;8.23;;;19.30;99.90;;;;;;4985695;28;20203;-67
2022/10/13 12:42:28;;;;;;;12.60;7.60;;;19.70;99.90;;;;;;4984103;28;20478;-66
2022/10/13 12:44:54;;;;;;;9.03;7.87;;;20.20;99.90;;;;;;4991341;28;20460;-67
2022/10/13 12:47:39;;;;;;;8.03;7.20;;;20.70;99.90;;;;;;4992429;28;21048;-67
2022/10/13 12:50:21;;;;;;;7.10;6.40;;;20.80;99.90;;;;;;4991597;28;20528;-68